createdAt,value
2023-02-16T00:02:59.455Z,101364.73
2023-02-16T00:08:02.053Z,101363.90
2023-02-16T00:13:44.938Z,101351.35
2023-02-16T00:18:48.086Z,101341.11
2023-02-16T00:23:49.971Z,101336.02
2023-02-16T00:28:54.564Z,101336.04
2023-02-16T00:33:56.685Z,101331.37
2023-02-16T00:38:58.165Z,101318.53
2023-02-16T00:43:59.943Z,101303.20
2023-02-16T00:49:01.858Z,101298.45
2023-02-16T00:54:03.420Z,101287.45
2023-02-16T00:59:07.908Z,101278.60
2023-02-16T01:04:12.590Z,101264.83
2023-02-16T01:09:35.717Z,101262.05
2023-02-16T01:14:37.387Z,101264.03
2023-02-16T01:19:39.047Z,101250.80
2023-02-16T01:24:40.575Z,101243.39
2023-02-16T01:29:42.681Z,101238.21
2023-02-16T01:34:44.538Z,101235.29
2023-02-16T01:39:46.061Z,101230.36
2023-02-16T01:44:51.624Z,101219.06
2023-02-16T01:49:53.196Z,101223.14
2023-02-16T01:55:05.750Z,101223.42
2023-02-16T02:00:12.437Z,101219.70
2023-02-16T02:05:37.165Z,101209.82
2023-02-16T02:11:14.550Z,101208.95
2023-02-16T02:16:24.710Z,101207.75
2023-02-16T02:22:15.682Z,101208.35
2023-02-16T02:27:26.864Z,101200.12
2023-02-16T02:32:47.414Z,101201.13
2023-02-16T02:37:58.204Z,101198.02
2023-02-16T02:43:18.586Z,101196.80
2023-02-16T02:48:20.096Z,101187.04
2023-02-16T02:53:21.628Z,101181.51
2023-02-16T02:58:44.431Z,101179.74
2023-02-16T03:03:52.416Z,101182.66
2023-02-16T03:08:58.618Z,101187.15
2023-02-16T03:14:21.159Z,101180.06
2023-02-16T03:19:41.317Z,101169.92
2023-02-16T03:25:02.401Z,101163.85
2023-02-16T03:30:06.219Z,101149.33
2023-02-16T03:35:08.756Z,101146.98
2023-02-16T03:40:29.897Z,101139.64
2023-02-16T03:45:35.085Z,101133.81
2023-02-16T03:50:37.027Z,101129.55
2023-02-16T03:55:44.950Z,101124.59
2023-02-16T04:00:47.005Z,101117.45
2023-02-16T04:05:48.494Z,101110.09
2023-02-16T04:10:50.616Z,101106.90
2023-02-16T04:15:52.903Z,101103.29
2023-02-16T04:20:54.682Z,101092.36
2023-02-16T04:25:56.165Z,101083.53
2023-02-16T04:30:57.823Z,101081.95
2023-02-16T04:35:59.446Z,101072.27
2023-02-16T04:41:01.105Z,101072.42
2023-02-16T04:46:02.899Z,101068.98
2023-02-16T04:51:05.873Z,101071.27
2023-02-16T04:56:12.133Z,101064.77
2023-02-16T05:01:25.729Z,101069.04
2023-02-16T05:06:27.407Z,101069.23
2023-02-16T05:11:47.901Z,101076.93
2023-02-16T05:16:49.458Z,101077.25
2023-02-16T05:21:50.927Z,101073.09
2023-02-16T05:26:52.499Z,101070.59
2023-02-16T05:31:54.166Z,101067.29
2023-02-16T05:36:56.047Z,101071.77
2023-02-16T05:41:57.943Z,101062.44
2023-02-16T05:46:59.689Z,101062.75
2023-02-16T05:52:02.177Z,101060.61
2023-02-16T05:57:03.821Z,101065.27
2023-02-16T06:02:05.323Z,101064.80
2023-02-16T06:07:06.999Z,101064.29
2023-02-16T06:12:08.750Z,101054.95
2023-02-16T06:17:10.267Z,101057.81
2023-02-16T06:22:11.792Z,101048.52
2023-02-16T06:27:13.270Z,101052.33
2023-02-16T06:32:15.032Z,101044.14
2023-02-16T06:37:16.692Z,101053.90
2023-02-16T06:42:18.233Z,101063.05
2023-02-16T06:47:19.728Z,101056.85
2023-02-16T06:52:21.362Z,101047.67
2023-02-16T06:57:22.934Z,101053.98
2023-02-16T07:02:24.486Z,101039.77
2023-02-16T07:07:26.076Z,101036.64
2023-02-16T07:12:28.493Z,101036.13
2023-02-16T07:17:30.060Z,101026.36
2023-02-16T07:22:32.371Z,101025.64
2023-02-16T07:27:33.908Z,101028.77
2023-02-16T07:32:35.526Z,101028.03
2023-02-16T07:37:37.122Z,101021.11
2023-02-16T07:42:39.178Z,101016.56
2023-02-16T07:47:40.711Z,101015.55
2023-02-16T07:52:42.672Z,101021.05
2023-02-16T07:57:44.234Z,101015.58
2023-02-16T08:02:45.848Z,101021.52
2023-02-16T08:07:47.922Z,101022.30
2023-02-16T08:12:49.895Z,101017.84
2023-02-16T08:17:51.471Z,101015.14
2023-02-16T08:22:54.822Z,101007.38
2023-02-16T08:27:56.360Z,101007.50
2023-02-16T08:33:01.165Z,101003.31
2023-02-16T08:38:02.661Z,101000.66
2023-02-16T08:43:04.327Z,100997.39
2023-02-16T08:48:06.395Z,100994.75
2023-02-16T08:53:07.928Z,100990.91
2023-02-16T08:58:09.405Z,100995.55
2023-02-16T09:03:10.958Z,101001.40
2023-02-16T09:08:12.910Z,100998.67
2023-02-16T09:13:15.163Z,100997.82
2023-02-16T09:18:16.849Z,100995.53
2023-02-16T09:23:20.503Z,100999.20
2023-02-16T09:28:22.181Z,100998.44
2023-02-16T09:33:23.859Z,100992.22
2023-02-16T09:38:25.674Z,100989.21
2023-02-16T09:43:53.146Z,100988.36
2023-02-16T09:48:55.337Z,100986.80
2023-02-16T09:54:03.999Z,100979.68
2023-02-16T09:59:27.037Z,100974.98
2023-02-16T10:04:54.085Z,100974.35
2023-02-16T10:09:57.185Z,100971.88
2023-02-16T10:15:09.375Z,100968.86
2023-02-16T10:20:23.245Z,100962.83
2023-02-16T10:25:48.971Z,100955.07
2023-02-16T10:31:06.154Z,100956.83
2023-02-16T10:36:23.336Z,100952.52
2023-02-16T10:41:33.028Z,100954.30
2023-02-16T10:46:40.418Z,100954.40
2023-02-16T10:51:47.195Z,100948.70
2023-02-16T10:57:00.799Z,100943.13
2023-02-16T11:02:19.251Z,100940.60
2023-02-16T11:07:27.054Z,100924.16
2023-02-16T11:12:42.981Z,100917.73
2023-02-16T11:17:49.207Z,100911.77
2023-02-16T11:22:51.703Z,100900.88
2023-02-16T11:28:05.500Z,100892.56
2023-02-16T11:33:27.005Z,100892.41
2023-02-16T11:38:30.757Z,100886.61
2023-02-16T11:43:36.552Z,100886.66
2023-02-16T11:48:38.134Z,100882.76
2023-02-16T11:53:42.564Z,100878.84
2023-02-16T11:58:45.168Z,100877.85
2023-02-16T12:04:24.617Z,100876.66
2023-02-16T12:09:39.542Z,100873.74
2023-02-16T12:15:00.041Z,100877.86
2023-02-16T12:20:04.401Z,100874.76
2023-02-16T12:25:08.531Z,100863.46
2023-02-16T12:30:34.132Z,100862.75
2023-02-16T12:36:13.432Z,100863.93
2023-02-16T12:41:23.915Z,100860.14
2023-02-16T12:46:52.804Z,100854.27
2023-02-16T12:52:05.389Z,100851.83
2023-02-16T12:57:17.504Z,100848.73
2023-02-16T13:02:44.518Z,100840.84
2023-02-16T13:07:49.564Z,100840.83
2023-02-16T13:13:01.118Z,100840.34
2023-02-16T13:18:15.501Z,100838.02
2023-02-16T13:24:19.024Z,100837.79
2023-02-16T13:29:47.744Z,100838.10
2023-02-16T13:35:08.854Z,100836.41
2023-02-16T13:40:25.708Z,100830.45
2023-02-16T13:45:32.399Z,100834.42
2023-02-16T13:50:34.288Z,100832.05
2023-02-16T13:55:38.745Z,100832.27
2023-02-16T14:00:48.054Z,100827.01
2023-02-16T14:05:52.164Z,100818.98
2023-02-16T14:10:54.300Z,100819.20
2023-02-16T14:15:59.374Z,100813.57
2023-02-16T14:21:04.942Z,100812.20
2023-02-16T14:26:10.181Z,100811.73
2023-02-16T14:31:18.402Z,100812.42
2023-02-16T14:36:24.342Z,100812.61
2023-02-16T14:41:36.963Z,100817.59
2023-02-16T14:46:50.717Z,100814.53
2023-02-16T14:52:14.165Z,100810.79
2023-02-16T14:58:08.218Z,100811.14
2023-02-16T15:03:24.673Z,100815.60
2023-02-16T15:08:35.864Z,100817.50
2023-02-16T15:13:38.541Z,100813.91
2023-02-16T15:18:44.113Z,100814.93
2023-02-16T15:23:51.821Z,100813.91
2023-02-16T15:28:56.625Z,100811.18
2023-02-16T15:34:01.329Z,100804.20
2023-02-16T15:39:08.983Z,100808.98
2023-02-16T15:44:34.282Z,100814.60
2023-02-16T15:49:38.949Z,100812.67
2023-02-16T15:54:41.059Z,100815.55
2023-02-16T15:59:57.209Z,100813.80
2023-02-16T16:05:02.393Z,100810.71
2023-02-16T16:10:17.302Z,100809.85
2023-02-16T16:15:22.914Z,100810.70
2023-02-16T16:20:27.642Z,100806.20
2023-02-16T16:25:45.464Z,100809.81
2023-02-16T16:30:47.040Z,100814.52
2023-02-16T16:35:50.694Z,100802.33
2023-02-16T16:41:01.161Z,100801.90
2023-02-16T16:46:14.245Z,100799.89
2023-02-16T16:51:27.653Z,100795.30
2023-02-16T16:56:31.100Z,100790.52
2023-02-16T17:01:33.066Z,100781.45
2023-02-16T17:06:34.597Z,100790.45
2023-02-16T17:11:38.018Z,100785.11
2023-02-16T17:16:45.460Z,100783.56
2023-02-16T17:21:47.882Z,100776.09
2023-02-16T17:26:50.261Z,100777.94
2023-02-16T17:31:52.002Z,100784.88
2023-02-16T17:36:53.748Z,100784.82
2023-02-16T17:41:55.331Z,100785.23
2023-02-16T17:46:56.899Z,100785.73
2023-02-16T17:51:58.373Z,100779.42
2023-02-16T17:57:00.069Z,100781.27
2023-02-16T18:02:01.589Z,100778.27
2023-02-16T18:07:03.118Z,100773.89
2023-02-16T18:12:04.981Z,100771.41
2023-02-16T18:17:07.061Z,100773.94
2023-02-16T18:22:08.713Z,100771.75
2023-02-16T18:27:10.709Z,100771.88
2023-02-16T18:32:12.440Z,100766.52
2023-02-16T18:37:14.372Z,100773.91
2023-02-16T18:42:16.540Z,100779.77
2023-02-16T18:47:18.253Z,100780.29
2023-02-16T18:52:20.410Z,100781.50
2023-02-16T18:57:22.721Z,100772.89
2023-02-16T19:02:24.247Z,100770.41
2023-02-16T19:07:25.921Z,100771.17
2023-02-16T19:12:27.440Z,100776.48
2023-02-16T19:17:28.909Z,100773.23
2023-02-16T19:22:31.551Z,100771.64
2023-02-16T19:27:33.441Z,100775.44
2023-02-16T19:32:35.014Z,100769.52
2023-02-16T19:37:36.563Z,100776.70
2023-02-16T19:42:39.169Z,100773.77
2023-02-16T19:47:41.694Z,100775.40
2023-02-16T19:52:43.246Z,100771.95
2023-02-16T19:57:44.764Z,100766.57
2023-02-16T20:02:46.293Z,100762.48
2023-02-16T20:07:47.801Z,100763.10
2023-02-16T20:12:49.287Z,100762.34
2023-02-16T20:17:51.204Z,100762.13
2023-02-16T20:22:52.695Z,100761.64
2023-02-16T20:27:57.178Z,100763.68
2023-02-16T20:32:58.698Z,100763.25
2023-02-16T20:38:00.298Z,100765.04
2023-02-16T20:43:01.789Z,100764.55
2023-02-16T20:48:04.187Z,100764.79
2023-02-16T20:53:06.450Z,100769.03
2023-02-16T20:58:07.980Z,100766.05
2023-02-16T21:03:09.902Z,100766.29
2023-02-16T21:08:11.417Z,100769.55
2023-02-16T21:13:13.309Z,100764.05
2023-02-16T21:18:14.847Z,100762.38
2023-02-16T21:23:16.450Z,100760.11
2023-02-16T21:28:18.190Z,100758.63
2023-02-16T21:33:20.282Z,100758.99
2023-02-16T21:38:22.127Z,100759.36
2023-02-16T21:43:23.651Z,100757.55
2023-02-16T21:48:44.010Z,100758.11
2023-02-16T21:53:46.086Z,100755.55
2023-02-16T21:58:47.740Z,100747.03
2023-02-16T22:03:50.098Z,100752.02
2023-02-16T22:08:52.120Z,100747.16
2023-02-16T22:13:55.727Z,100743.45
2023-02-16T22:19:07.350Z,100745.67
2023-02-16T22:24:13.038Z,100744.99
2023-02-16T22:29:14.544Z,100749.04
2023-02-16T22:34:19.263Z,100745.81
2023-02-16T22:39:21.163Z,100743.16
2023-02-16T22:44:22.676Z,100747.30
2023-02-16T22:49:24.164Z,100750.14
2023-02-16T22:54:26.040Z,100750.73
2023-02-16T22:59:27.973Z,100747.08
2023-02-16T23:04:29.504Z,100746.94
2023-02-16T23:09:31.010Z,100740.71
2023-02-16T23:14:37.290Z,100740.34
2023-02-16T23:19:40.182Z,100743.69
2023-02-16T23:24:41.838Z,100743.57
2023-02-16T23:29:43.447Z,100735.65
2023-02-16T23:34:44.977Z,100737.16
2023-02-16T23:39:46.486Z,100738.79
2023-02-16T23:44:48.008Z,100737.18
2023-02-16T23:49:49.911Z,100742.00
2023-02-16T23:54:52.021Z,100740.20
2023-02-16T23:59:53.547Z,100743.95
